Time;durP1;ratioP1;P1;durP2;ratioP2;P2;SDS_P1;SDS_P2;PMS_P1;PMS_P2;Temp;Humidity;BMP_temperature;BMP_pressure;BME280_temperature;BME280_humidity;BME280_pressure;Samples;Min_cycle;Max_cycle;Signal;HPM_P1;HPM_P2
2023/12/11 00:02:19;;;;;;;61.80;34.50;;;;;;;7.39;72.64;100935.59;5048332;28;20504;-77
2023/12/11 00:04:45;;;;;;;61.30;36.20;;;;;;;7.35;72.26;100926.03;5047718;28;20041;-77
2023/12/11 00:07:10;;;;;;;53.92;31.13;;;;;;;7.40;72.04;100929.28;5049121;28;20104;-77
2023/12/11 00:09:36;;;;;;;56.03;32.10;;;;;;;7.43;72.26;100953.16;5048745;28;20021;-77
2023/12/11 00:12:02;;;;;;;61.90;33.53;;;;;;;7.38;71.44;100952.59;5049279;28;20029;-77
2023/12/11 00:14:27;;;;;;;49.13;30.30;;;;;;;7.00;71.64;100892.63;5048967;28;20025;-77
2023/12/11 00:16:53;;;;;;;50.35;31.05;;;;;;;7.40;71.48;100944.50;5048867;28;20029;-78
2023/12/11 00:19:19;;;;;;;53.05;31.15;;;;;;;7.30;71.21;100944.22;5048741;28;20029;-77
2023/12/11 00:21:44;;;;;;;48.67;30.60;;;;;;;7.15;71.32;100955.00;5048834;28;20094;-77
2023/12/11 00:24:10;;;;;;;54.70;30.55;;;;;;;7.17;71.90;100945.06;5048715;28;20385;-78
2023/12/11 00:26:36;;;;;;;55.92;32.00;;;;;;;7.04;71.79;100950.31;5048731;28;20044;-77
2023/12/11 00:29:01;;;;;;;57.05;29.95;;;;;;;6.98;72.12;100948.00;5048834;28;20051;-77
2023/12/11 00:31:27;;;;;;;55.22;30.05;;;;;;;6.99;72.36;100957.75;5054515;28;20401;-77
2023/12/11 00:33:52;;;;;;;49.90;29.80;;;;;;;6.91;72.35;100941.34;5057001;28;20650;-77
2023/12/11 00:36:18;;;;;;;52.55;30.13;;;;;;;6.99;72.67;100945.25;5055655;28;20029;-77
2023/12/11 00:38:43;;;;;;;53.28;30.98;;;;;;;7.05;72.24;100952.91;5050775;28;20021;-77
2023/12/11 00:41:09;;;;;;;45.58;27.33;;;;;;;7.13;71.71;100957.75;5048409;28;20485;-76
2023/12/11 00:43:34;;;;;;;52.50;28.90;;;;;;;7.12;71.47;100966.75;5048994;28;20040;-78
2023/12/11 00:46:00;;;;;;;53.47;30.77;;;;;;;7.12;71.64;100966.75;5048596;28;20028;-77
2023/12/11 00:48:25;;;;;;;45.20;26.50;;;;;;;7.12;71.23;100961.41;5048473;28;20052;-77
2023/12/11 00:50:51;;;;;;;49.10;28.63;;;;;;;7.11;71.61;100948.97;5048234;28;20063;-77
2023/12/11 00:53:16;;;;;;;50.50;29.02;;;;;;;7.13;71.31;100949.72;5048156;28;20025;-78
2023/12/11 00:55:42;;;;;;;51.47;29.00;;;;;;;7.09;71.55;100950.91;5048047;28;20445;-77
2023/12/11 00:58:07;;;;;;;49.15;29.27;;;;;;;7.06;71.05;100956.44;5047896;28;20036;-78
2023/12/11 01:00:33;;;;;;;50.97;29.55;;;;;;;7.08;71.35;100965.22;5045861;28;20048;-77
2023/12/11 01:02:58;;;;;;;48.58;27.98;;;;;;;6.99;71.72;100933.69;5048089;28;20021;-77
2023/12/11 01:05:24;;;;;;;47.65;29.52;;;;;;;7.05;71.52;100960.06;5048210;28;20032;-77
2023/12/11 01:07:49;;;;;;;45.10;28.13;;;;;;;7.04;71.78;100944.97;5048261;28;20040;-76
2023/12/11 01:10:15;;;;;;;43.33;25.75;;;;;;;7.08;71.44;100957.19;5047864;28;20118;-79
2023/12/11 01:12:42;;;;;;;42.72;25.55;;;;;;;7.00;71.21;100940.78;5048589;28;20416;-78
2023/12/11 01:15:08;;;;;;;43.33;25.58;;;;;;;6.91;71.20;100952.03;5048411;28;20420;-78
2023/12/11 01:17:33;;;;;;;40.97;24.55;;;;;;;6.87;71.65;100943.34;5048235;28;20033;-77
2023/12/11 01:19:59;;;;;;;42.83;26.67;;;;;;;6.77;71.93;100926.13;5050138;28;20116;-79
2023/12/11 01:22:24;;;;;;;40.45;25.52;;;;;;;6.77;72.25;100917.25;5055556;28;20063;-76
2023/12/11 01:24:50;;;;;;;42.80;25.73;;;;;;;6.72;72.06;100888.13;5054302;28;20131;-78
2023/12/11 01:27:15;;;;;;;38.08;23.35;;;;;;;7.07;71.84;100937.59;5048024;28;20024;-78
2023/12/11 01:29:41;;;;;;;39.70;23.25;;;;;;;7.06;71.67;100930.53;5047956;28;20051;-78
2023/12/11 01:32:06;;;;;;;45.35;24.85;;;;;;;6.89;70.74;100916.50;5047988;28;20028;-78
2023/12/11 01:34:32;;;;;;;37.13;23.15;;;;;;;6.91;70.03;100922.63;5048014;28;20036;-77
2023/12/11 01:36:57;;;;;;;40.72;24.20;;;;;;;6.99;70.17;100937.22;5047735;28;20028;-77
2023/12/11 01:39:23;;;;;;;39.42;24.13;;;;;;;6.90;69.89;100928.91;5047918;28;20032;-77
2023/12/11 01:41:48;;;;;;;35.22;23.23;;;;;;;7.01;70.06;100923.75;5047597;28;20028;-78
2023/12/11 01:44:14;;;;;;;41.63;24.33;;;;;;;7.09;69.50;100929.50;5047924;28;20033;-78
2023/12/11 01:46:39;;;;;;;44.38;24.83;;;;;;;7.06;69.76;100919.00;5047576;28;20067;-76
2023/12/11 01:49:05;;;;;;;40.47;24.67;;;;;;;7.04;69.55;100913.72;5047821;28;20037;-77
2023/12/11 01:51:31;;;;;;;42.83;23.80;;;;;;;7.08;69.52;100933.13;5047809;28;20055;-77
2023/12/11 01:53:56;;;;;;;37.83;22.98;;;;;;;7.03;69.09;100929.88;5047632;28;20025;-77
2023/12/11 01:56:22;;;;;;;42.63;24.10;;;;;;;7.00;69.10;100930.91;5062326;28;20041;-78
2023/12/11 01:58:48;;;;;;;39.40;24.35;;;;;;;6.73;69.17;100902.38;5047715;28;20571;-78
2023/12/11 02:01:16;;;;;;;42.17;25.67;;;;;;;6.86;69.28;100930.03;5047911;28;20029;-76
2023/12/11 02:03:41;;;;;;;40.13;24.98;;;;;;;6.75;69.38;100908.47;5048151;28;20067;-78
2023/12/11 02:06:07;;;;;;;40.72;24.25;;;;;;;6.81;69.66;100924.13;5048300;28;20516;-77
2023/12/11 02:08:33;;;;;;;39.70;24.33;;;;;;;6.82;69.86;100923.19;5047311;28;20033;-77
2023/12/11 02:10:58;;;;;;;39.45;24.90;;;;;;;6.88;70.07;100934.34;5049992;28;20131;-76
2023/12/11 02:13:24;;;;;;;37.88;23.23;;;;;;;6.88;69.74;100930.84;5054627;28;20052;-77
2023/12/11 02:15:51;;;;;;;39.00;22.95;;;;;;;6.82;69.38;100931.22;5051595;28;20033;-77
2023/12/11 02:18:16;;;;;;;36.10;21.92;;;;;;;6.82;69.07;100947.25;5047285;28;20513;-77
2023/12/11 02:20:43;;;;;;;38.75;22.27;;;;;;;6.80;69.49;100938.44;5045959;28;20163;-77
2023/12/11 02:23:17;;;;;;;39.97;22.83;;;;;;;6.73;69.46;100947.81;5047090;28;20044;-78
2023/12/11 02:25:46;;;;;;;36.28;22.02;;;;;;;6.74;69.59;100960.19;5047634;28;20520;-78
2023/12/11 02:28:11;;;;;;;41.85;22.23;;;;;;;6.75;69.47;100956.59;5051175;28;20104;-78
2023/12/11 02:30:50;;;;;;;40.70;23.17;;;;;;;6.61;69.09;100953.84;5050767;28;20108;-79
2023/12/11 02:33:16;;;;;;;35.08;22.00;;;;;;;6.30;69.76;100939.66;5048353;28;20033;-76
2023/12/11 02:35:43;;;;;;;39.42;22.60;;;;;;;6.41;70.12;100945.25;5050821;28;20033;-78
2023/12/11 02:38:09;;;;;;;34.45;20.52;;;;;;;6.28;70.35;100933.56;5051021;28;21216;-78
2023/12/11 02:40:34;;;;;;;34.65;20.98;;;;;;;6.37;70.77;100941.03;5051000;28;20037;-77
2023/12/11 02:43:00;;;;;;;35.83;21.55;;;;;;;5.98;71.28;100948.69;5051140;28;20036;-77
2023/12/11 02:45:25;;;;;;;38.05;22.50;;;;;;;5.89;71.91;100919.84;5050723;28;20033;-77
2023/12/11 02:47:51;;;;;;;37.00;23.08;;;;;;;6.08;71.78;100939.19;5050459;28;20025;-77
2023/12/11 02:50:16;;;;;;;37.80;22.05;;;;;;;6.19;71.81;100936.75;5050657;28;20424;-76
2023/12/11 02:52:42;;;;;;;42.58;22.52;;;;;;;6.30;72.11;100947.66;5049727;28;20032;-76
2023/12/11 02:55:08;;;;;;;40.88;23.17;;;;;;;6.34;72.08;100948.34;5051362;28;20030;-77
2023/12/11 02:57:33;;;;;;;39.53;23.15;;;;;;;6.40;71.42;100951.53;5050966;28;20036;-78
2023/12/11 02:59:59;;;;;;;37.05;20.95;;;;;;;6.45;71.47;100960.13;5050895;28;20533;-78
2023/12/11 03:02:24;;;;;;;34.42;21.63;;;;;;;6.46;71.11;100951.16;5051111;28;20041;-78
2023/12/11 03:04:50;;;;;;;34.90;20.75;;;;;;;6.43;70.94;100951.34;5057760;28;20017;-77
2023/12/11 03:07:15;;;;;;;32.45;19.55;;;;;;;6.37;71.01;100943.69;5052865;28;20013;-77
2023/12/11 03:09:41;;;;;;;36.45;21.00;;;;;;;6.34;70.59;100935.84;5050510;28;20025;-78
2023/12/11 03:12:06;;;;;;;32.60;19.50;;;;;;;6.36;70.67;100923.25;5050076;28;20021;-77
2023/12/11 03:14:32;;;;;;;31.35;19.38;;;;;;;6.37;70.43;100929.47;5050209;28;20091;-77
2023/12/11 03:16:57;;;;;;;32.90;20.45;;;;;;;6.40;70.62;100940.84;5050119;28;20108;-77
2023/12/11 03:19:24;;;;;;;29.75;18.65;;;;;;;6.28;70.75;100925.53;5049872;28;20032;-77
2023/12/11 03:21:50;;;;;;;33.55;19.60;;;;;;;6.37;70.82;100941.03;5048811;28;20025;-77
2023/12/11 03:24:15;;;;;;;34.45;20.08;;;;;;;6.37;70.70;100935.66;5049677;28;20036;-79
2023/12/11 03:26:41;;;;;;;36.45;19.92;;;;;;;6.36;70.83;100943.78;5050202;28;20025;-76
2023/12/11 03:29:06;;;;;;;32.03;20.33;;;;;;;6.21;70.90;100924.16;5049877;28;20029;-78
2023/12/11 03:31:32;;;;;;;32.85;20.65;;;;;;;6.24;70.84;100913.31;5050080;28;20025;-77
2023/12/11 03:33:57;;;;;;;36.92;20.60;;;;;;;6.32;70.81;100932.44;5049821;28;20025;-77
2023/12/11 03:36:23;;;;;;;30.17;19.48;;;;;;;6.26;70.61;100940.81;5049418;28;20039;-77
2023/12/11 03:38:48;;;;;;;30.67;18.83;;;;;;;6.03;70.97;100927.91;5049933;28;20029;-77
2023/12/11 03:41:14;;;;;;;36.22;20.77;;;;;;;5.86;71.39;100915.53;5049655;28;20045;-77
2023/12/11 03:43:39;;;;;;;43.85;20.88;;;;;;;6.08;71.78;100941.00;5049942;28;20025;-77
2023/12/11 03:46:05;;;;;;;31.33;19.88;;;;;;;6.14;71.83;100954.88;5049956;28;20037;-77
2023/12/11 03:48:31;;;;;;;31.85;19.50;;;;;;;6.08;71.73;100938.34;5049931;28;20406;-77
2023/12/11 03:50:56;;;;;;;32.15;19.42;;;;;;;6.12;71.40;100943.41;5049509;28;20155;-79
2023/12/11 03:53:22;;;;;;;30.08;18.23;;;;;;;5.99;71.50;100918.38;5051954;28;20025;-78
2023/12/11 03:55:47;;;;;;;32.00;18.45;;;;;;;5.96;71.35;100918.56;5057057;28;20055;-77
2023/12/11 03:58:13;;;;;;;33.10;17.83;;;;;;;6.07;71.43;100940.13;5051963;28;20021;-76
2023/12/11 04:00:39;;;;;;;33.03;19.45;;;;;;;6.14;71.11;100938.84;5049216;28;20136;-77
2023/12/11 04:03:04;;;;;;;38.65;17.65;;;;;;;6.15;71.36;100934.34;5049397;28;20079;-78
2023/12/11 04:05:30;;;;;;;30.80;17.67;;;;;;;6.15;71.13;100923.66;5049322;28;20033;-77
2023/12/11 04:07:55;;;;;;;32.03;19.65;;;;;;;6.21;70.63;100926.00;5048869;28;20039;-77
2023/12/11 04:10:21;;;;;;;30.65;18.98;;;;;;;6.11;70.89;100909.66;5048942;28;20029;-77
2023/12/11 04:12:46;;;;;;;30.85;17.40;;;;;;;6.14;70.95;100912.16;5049264;28;20460;-78
2023/12/11 04:15:12;;;;;;;39.22;20.75;;;;;;;6.12;71.13;100924.69;5048968;28;20047;-76
2023/12/11 04:17:37;;;;;;;38.65;22.15;;;;;;;6.00;71.31;100882.69;5049040;28;20021;-77
2023/12/11 04:20:04;;;;;;;32.90;19.10;;;;;;;6.19;71.22;100909.19;5049002;28;20048;-76
2023/12/11 04:22:30;;;;;;;34.47;19.70;;;;;;;6.18;71.09;100919.00;5049002;28;20023;-77
2023/12/11 04:24:55;;;;;;;32.22;19.15;;;;;;;6.21;70.63;100923.34;5048701;28;20057;-77
2023/12/11 04:27:21;;;;;;;32.03;19.88;;;;;;;6.12;70.36;100919.38;5046531;28;20033;-77
2023/12/11 04:29:47;;;;;;;39.63;19.52;;;;;;;6.07;70.87;100932.13;5048648;28;20127;-78
2023/12/11 04:32:12;;;;;;;37.90;18.23;;;;;;;6.14;70.82;100922.81;5047255;28;20048;-77
2023/12/11 04:34:38;;;;;;;30.13;19.52;;;;;;;6.03;70.98;100919.91;5048774;28;20119;-77
2023/12/11 04:37:03;;;;;;;32.20;18.75;;;;;;;6.13;71.05;100938.91;5048360;28;20547;-78
2023/12/11 04:39:29;;;;;;;36.40;19.52;;;;;;;6.00;71.29;100912.06;5048733;28;20409;-77
2023/12/11 04:41:54;;;;;;;33.60;19.67;;;;;;;6.10;70.97;100942.63;5048729;28;20029;-78
2023/12/11 04:44:20;;;;;;;27.05;17.58;;;;;;;5.90;71.07;100916.25;5051420;28;20032;-77
2023/12/11 04:46:45;;;;;;;33.33;16.25;;;;;;;6.06;71.00;100934.88;5053259;28;20044;-79
2023/12/11 04:49:11;;;;;;;35.03;18.33;;;;;;;6.01;70.97;100922.66;5048455;28;20416;-77
2023/12/11 04:51:36;;;;;;;47.38;20.40;;;;;;;6.02;71.11;100923.53;5047796;28;20013;-77
2023/12/11 04:54:02;;;;;;;33.63;18.65;;;;;;;5.94;71.41;100925.78;5047998;28;20473;-76
2023/12/11 04:56:27;;;;;;;28.70;17.95;;;;;;;5.97;71.41;100930.94;5048071;28;20396;-76
2023/12/11 04:58:53;;;;;;;39.78;21.98;;;;;;;5.99;71.75;100934.41;5047982;28;20032;-78
2023/12/11 05:01:19;;;;;;;42.63;21.38;;;;;;;5.89;71.63;100920.72;5047696;28;20013;-78
2023/12/11 05:03:44;;;;;;;38.65;21.42;;;;;;;5.90;71.78;100932.25;5048026;28;20108;-78
2023/12/11 05:06:10;;;;;;;55.08;22.63;;;;;;;6.00;71.94;100944.09;5047965;28;20571;-78
2023/12/11 05:08:35;;;;;;;29.58;19.52;;;;;;;5.93;71.97;100926.75;5047551;28;20108;-77
2023/12/11 05:11:01;;;;;;;55.03;22.17;;;;;;;5.96;71.90;100926.56;5047607;28;20052;-77
2023/12/11 05:13:26;;;;;;;38.15;20.90;;;;;;;5.86;71.72;100917.34;5047704;28;20036;-77
2023/12/11 05:15:52;;;;;;;32.65;18.08;;;;;;;5.89;71.59;100912.69;5064820;28;20033;-76
2023/12/11 05:18:17;;;;;;;44.95;21.63;;;;;;;5.86;71.83;100914.69;5065039;28;20032;-78
2023/12/11 05:20:43;;;;;;;51.42;21.52;;;;;;;6.05;71.42;100934.03;5064506;28;20037;-78
2023/12/11 05:23:08;;;;;;;36.85;20.52;;;;;;;5.86;71.32;100933.38;5064843;28;20035;-77
2023/12/11 05:25:34;;;;;;;39.90;20.95;;;;;;;5.80;71.81;100939.03;5064338;28;20247;-75
2023/12/11 05:27:59;;;;;;;45.25;22.10;;;;;;;5.81;71.87;100944.25;5065104;28;20186;-77
2023/12/11 05:30:25;;;;;;;67.57;22.40;;;;;;;5.85;72.29;100944.94;5065587;28;20389;-78
2023/12/11 05:32:50;;;;;;;52.83;20.92;;;;;;;5.74;72.34;100918.03;5065612;28;20033;-78
2023/12/11 05:35:16;;;;;;;41.35;21.80;;;;;;;5.89;71.98;100949.22;5048951;28;20037;-78
2023/12/11 05:37:41;;;;;;;30.10;18.83;;;;;;;5.74;71.67;100950.91;5072394;28;20040;-74
2023/12/11 05:40:08;;;;;;;39.97;18.88;;;;;;;5.81;72.08;100940.75;5070607;28;20036;-76
2023/12/11 05:42:33;;;;;;;44.85;20.60;;;;;;;5.78;72.27;100935.59;5065467;28;20044;-76
2023/12/11 05:44:59;;;;;;;85.68;22.70;;;;;;;5.77;72.20;100923.19;5065576;28;20531;-74
2023/12/11 05:47:25;;;;;;;43.20;21.00;;;;;;;5.87;71.90;100946.59;5052157;28;20425;-75
2023/12/11 05:49:50;;;;;;;52.90;22.13;;;;;;;5.88;71.92;100950.16;5047259;28;20029;-79
2023/12/11 05:52:16;;;;;;;55.30;22.95;;;;;;;5.88;71.42;100951.00;5046545;28;20033;-76
2023/12/11 05:54:41;;;;;;;45.35;21.67;;;;;;;5.83;71.72;100960.19;5046049;28;20116;-76
2023/12/11 05:57:07;;;;;;;41.35;23.45;;;;;;;5.72;71.87;100962.63;5047614;28;20136;-77
2023/12/11 05:59:32;;;;;;;50.17;22.02;;;;;;;5.74;71.48;100974.94;5046865;28;20029;-75
2023/12/11 06:01:58;;;;;;;53.92;22.45;;;;;;;5.66;71.83;100989.63;5050545;28;20166;-76
2023/12/11 06:04:23;;;;;;;44.17;21.70;;;;;;;5.67;72.13;100991.34;5051736;28;20078;-77
2023/12/11 06:06:49;;;;;;;46.30;22.33;;;;;;;5.55;72.26;100995.56;5051400;28;20029;-74
2023/12/11 06:09:15;;;;;;;48.22;22.42;;;;;;;5.43;72.66;100973.09;5051123;28;20029;-75
2023/12/11 06:11:40;;;;;;;45.90;23.52;;;;;;;5.57;72.85;100993.66;5051404;28;20039;-76
2023/12/11 06:14:06;;;;;;;58.72;24.15;;;;;;;5.55;73.03;100981.34;5051089;28;20079;-77
2023/12/11 06:16:32;;;;;;;53.53;22.55;;;;;;;5.58;72.96;100981.19;5051424;28;20389;-77
2023/12/11 06:18:58;;;;;;;56.83;22.55;;;;;;;5.40;72.90;100973.25;5052208;28;20491;-77
2023/12/11 06:21:25;;;;;;;57.45;22.67;;;;;;;5.43;73.03;100986.44;5048723;28;20075;-77
2023/12/11 06:23:50;;;;;;;54.90;24.50;;;;;;;5.51;73.31;100996.66;5051377;28;20021;-77
2023/12/11 06:26:28;;;;;;;90.78;27.92;;;;;;;5.62;73.46;100998.75;5053825;28;20052;-77
2023/12/11 06:28:53;;;;;;;46.45;23.30;;;;;;;5.65;73.59;100998.59;5054129;28;20097;-77
2023/12/11 06:31:19;;;;;;;38.90;22.73;;;;;;;5.72;73.49;101010.66;5050850;28;20453;-76
2023/12/11 06:33:44;;;;;;;63.53;23.38;;;;;;;5.67;73.37;101002.03;5050813;28;20468;-76
2023/12/11 06:36:10;;;;;;;63.90;23.58;;;;;;;5.44;72.65;100974.78;5050697;28;20114;-77
2023/12/11 06:38:36;;;;;;;66.70;24.92;;;;;;;5.62;72.57;101014.75;5050944;28;20066;-77
2023/12/11 06:41:02;;;;;;;49.05;24.30;;;;;;;5.47;72.91;101006.63;5050907;28;20060;-76
2023/12/11 06:43:28;;;;;;;44.45;24.05;;;;;;;5.48;72.98;100981.69;5050845;28;20053;-76
2023/12/11 06:45:53;;;;;;;46.53;24.77;;;;;;;5.62;72.88;101010.28;5049295;28;20064;-77
2023/12/11 06:48:18;;;;;;;69.55;25.05;;;;;;;5.66;72.87;101001.16;5050613;28;20029;-76
2023/12/11 06:50:44;;;;;;;57.38;27.20;;;;;;;5.63;72.69;100979.97;5065128;28;20041;-76
2023/12/11 06:53:10;;;;;;;54.75;26.05;;;;;;;5.81;72.51;101005.66;5050567;28;20036;-76
2023/12/11 06:55:36;;;;;;;72.93;29.05;;;;;;;5.83;72.44;101009.09;5050341;28;20040;-76
2023/12/11 06:58:02;;;;;;;62.58;26.42;;;;;;;5.79;72.36;101014.69;5050469;28;20020;-76
2023/12/11 07:00:28;;;;;;;63.17;27.17;;;;;;;5.72;72.20;101021.31;5050774;28;20025;-76
2023/12/11 07:02:54;;;;;;;56.08;25.33;;;;;;;5.74;72.12;101024.75;5050717;28;20111;-76
2023/12/11 07:05:19;;;;;;;49.70;25.30;;;;;;;5.49;72.10;101010.09;5050401;28;20163;-78
2023/12/11 07:07:45;;;;;;;56.40;21.95;;;;;;;5.55;72.35;101026.72;5050590;28;20113;-78
2023/12/11 07:10:11;;;;;;;44.08;21.70;;;;;;;5.51;72.54;101028.69;5031632;28;20205;-78
2023/12/11 07:12:40;;;;;;;46.67;22.10;;;;;;;5.47;72.53;101040.47;5049848;28;20048;-77
2023/12/11 07:15:06;;;;;;;43.03;21.83;;;;;;;5.52;72.71;101056.22;5052069;28;20039;-77
2023/12/11 07:17:32;;;;;;;46.05;20.85;;;;;;;5.38;72.56;101049.81;5056389;28;20025;-78
2023/12/11 07:19:57;;;;;;;42.58;22.08;;;;;;;5.42;72.78;101067.38;5052215;28;20417;-77
2023/12/11 07:22:24;;;;;;;41.00;21.48;;;;;;;5.39;72.94;101072.88;5050102;28;20032;-75
2023/12/11 07:24:50;;;;;;;55.75;25.02;;;;;;;5.41;73.10;101060.31;5050094;28;20453;-77
2023/12/11 07:27:15;;;;;;;61.33;25.52;;;;;;;5.49;72.88;101068.78;5049966;28;20056;-76
2023/12/11 07:29:40;;;;;;;47.00;22.25;;;;;;;5.44;72.50;101076.16;5050418;28;20114;-76
2023/12/11 07:32:06;;;;;;;44.65;22.65;;;;;;;5.41;72.71;101070.97;5049833;28;20053;-76
2023/12/11 07:34:32;;;;;;;39.85;21.15;;;;;;;5.47;73.25;101070.66;5050101;28;20055;-75
2023/12/11 07:36:58;;;;;;;41.75;21.10;;;;;;;5.32;73.10;101066.13;5049766;28;20036;-77
2023/12/11 07:39:23;;;;;;;45.70;22.33;;;;;;;5.44;73.57;101060.16;5064304;28;20059;-76
2023/12/11 07:41:49;;;;;;;45.95;21.17;;;;;;;5.52;73.61;101042.88;5049777;28;20052;-76
2023/12/11 07:44:15;;;;;;;57.03;24.90;;;;;;;5.60;73.27;101045.97;5049851;28;20035;-77
2023/12/11 07:46:40;;;;;;;56.60;23.95;;;;;;;5.68;73.03;101047.31;5049706;28;20041;-78
2023/12/11 07:49:07;;;;;;;50.28;23.45;;;;;;;5.61;72.89;101063.72;5049562;28;20071;-76
2023/12/11 07:51:32;;;;;;;51.95;23.05;;;;;;;5.71;72.61;101062.28;5049279;28;20083;-77
2023/12/11 07:53:58;;;;;;;43.47;25.05;;;;;;;5.71;72.62;101062.28;5049404;28;20033;-76
2023/12/11 07:56:25;;;;;;;43.53;23.45;;;;;;;5.67;72.23;101063.41;5049538;28;20059;-76
2023/12/11 07:58:51;;;;;;;47.55;22.90;;;;;;;5.73;72.23;101071.06;5049535;28;20037;-78
2023/12/11 08:01:17;;;;;;;48.80;23.42;;;;;;;5.78;72.32;101069.88;5049612;28;20039;-78
2023/12/11 08:03:43;;;;;;;46.30;24.88;;;;;;;5.85;72.31;101059.72;5049478;28;20025;-77
2023/12/11 08:06:09;;;;;;;53.17;26.58;;;;;;;5.90;72.42;101065.72;5052788;28;20030;-77
2023/12/11 08:08:43;;;;;;;38.75;22.15;;;;;;;6.01;72.22;101052.63;5053934;28;20104;-77
2023/12/11 08:11:15;;;;;;;57.42;24.40;;;;;;;6.08;71.89;101040.66;5049211;28;20082;-76
2023/12/11 08:13:41;;;;;;;46.53;22.85;;;;;;;6.11;71.58;101028.94;5049088;28;20087;-77
2023/12/11 08:16:07;;;;;;;45.42;24.30;;;;;;;6.00;71.85;100994.81;5048922;28;20111;-75
2023/12/11 08:18:33;;;;;;;49.83;25.83;;;;;;;6.29;71.58;101034.09;5048973;28;20125;-76
2023/12/11 08:20:58;;;;;;;52.60;24.38;;;;;;;6.35;71.35;101022.19;5049055;28;20038;-75
2023/12/11 08:23:24;;;;;;;52.63;23.17;;;;;;;6.26;70.85;100990.69;5048032;28;20029;-76
2023/12/11 08:25:49;;;;;;;45.65;25.25;;;;;;;6.46;70.76;101028.63;5048863;28;20048;-76
2023/12/11 08:28:15;;;;;;;44.58;23.00;;;;;;;6.52;70.79;101025.59;5048581;28;20025;-77
2023/12/11 08:30:40;;;;;;;49.08;22.08;;;;;;;6.66;70.48;101030.16;5048738;28;20535;-76
2023/12/11 08:33:06;;;;;;;47.13;21.50;;;;;;;6.63;69.95;101026.81;5048887;28;20031;-76
2023/12/11 08:35:31;;;;;;;51.00;22.05;;;;;;;6.77;69.51;101027.72;5048576;28;20449;-77
2023/12/11 08:37:57;;;;;;;48.05;25.02;;;;;;;6.89;69.45;101020.75;5048318;28;20108;-76
2023/12/11 08:40:23;;;;;;;48.53;21.00;;;;;;;6.84;69.30;101014.84;5048805;28;20036;-76
2023/12/11 08:42:49;;;;;;;59.75;22.13;;;;;;;6.99;69.07;101025.47;5048383;28;20558;-77
2023/12/11 08:45:15;;;;;;;42.55;20.50;;;;;;;7.02;68.67;101013.72;5048634;28;20025;-75
2023/12/11 08:47:41;;;;;;;40.55;19.35;;;;;;;6.95;67.98;100994.53;5048759;28;20052;-76
2023/12/11 08:50:08;;;;;;;42.33;20.10;;;;;;;6.95;67.94;100986.50;5049043;28;20037;-77
2023/12/11 08:52:34;;;;;;;53.30;22.42;;;;;;;7.09;68.25;101002.56;5048880;28;20028;-76
2023/12/11 08:55:00;;;;;;;59.53;24.75;;;;;;;7.02;68.24;100995.00;5048482;28;20043;-78
2023/12/11 08:57:25;;;;;;;51.60;22.10;;;;;;;7.06;68.44;101000.06;5056214;28;20021;-76
2023/12/11 08:59:51;;;;;;;50.40;24.48;;;;;;;7.01;68.23;100990.59;5055631;28;20780;-76
2023/12/11 09:02:16;;;;;;;53.85;19.95;;;;;;;6.86;68.88;100981.72;5048726;28;20033;-77
2023/12/11 09:04:42;;;;;;;44.40;23.20;;;;;;;7.05;68.65;100976.09;5048284;28;20025;-76
2023/12/11 09:07:09;;;;;;;65.13;23.67;;;;;;;7.02;68.64;100960.25;5048115;28;20072;-75
2023/12/11 09:09:36;;;;;;;49.88;24.52;;;;;;;7.26;68.09;100982.81;5047978;28;20444;-76
2023/12/11 09:12:02;;;;;;;54.30;25.33;;;;;;;7.33;68.31;100968.09;5048102;28;20120;-73
2023/12/11 09:14:27;;;;;;;55.35;25.88;;;;;;;7.33;67.72;100964.56;5047907;28;20109;-76
2023/12/11 09:16:53;;;;;;;44.13;22.63;;;;;;;7.32;67.40;100953.00;5047834;28;20112;-76
2023/12/11 09:19:18;;;;;;;40.40;22.75;;;;;;;7.54;66.69;100968.56;5048110;28;20039;-77
2023/12/11 09:21:44;;;;;;;56.20;27.05;;;;;;;7.37;66.79;100964.25;5047890;28;20473;-77
2023/12/11 09:24:12;;;;;;;54.88;28.85;;;;;;;7.58;66.43;100975.44;5048125;28;20393;-76
2023/12/11 09:26:37;;;;;;;62.85;29.15;;;;;;;7.65;66.74;100971.41;5047852;28;20528;-78
2023/12/11 09:29:03;;;;;;;68.47;31.50;;;;;;;7.74;66.20;100975.28;5047957;28;20021;-78
2023/12/11 09:31:29;;;;;;;60.63;30.13;;;;;;;7.65;66.64;100972.25;5046318;28;20408;-76
2023/12/11 09:33:54;;;;;;;71.22;31.85;;;;;;;7.46;66.81;100952.97;5047797;28;20409;-78
2023/12/11 09:36:20;;;;;;;84.45;48.67;;;;;;;7.60;66.88;100958.31;5050006;28;20036;-77
2023/12/11 09:38:45;;;;;;;111.75;58.05;;;;;;;7.50;66.68;100941.13;5052503;28;20058;-78
2023/12/11 09:41:11;;;;;;;71.57;40.88;;;;;;;7.54;66.29;100921.25;5052697;28;20033;-76
2023/12/11 09:43:38;;;;;;;89.10;44.72;;;;;;;7.61;66.08;100917.19;5052211;28;20104;-77
2023/12/11 09:46:08;;;;;;;90.90;45.05;;;;;;;7.82;66.67;100943.56;5053135;28;20036;-78
2023/12/11 09:48:33;;;;;;;80.45;39.50;;;;;;;7.90;66.29;100933.19;5059043;28;20031;-77
2023/12/11 09:51:00;;;;;;;42.45;25.65;;;;;;;7.96;65.99;100936.34;5055814;28;20104;-78
2023/12/11 09:53:30;;;;;;;65.55;29.83;;;;;;;8.03;65.78;100923.41;5051907;28;20057;-77
2023/12/11 09:55:56;;;;;;;60.85;33.97;;;;;;;8.17;65.73;100920.66;5051427;28;20116;-76
2023/12/11 09:58:22;;;;;;;111.10;38.70;;;;;;;8.28;65.26;100918.16;5051113;28;20025;-78
2023/12/11 10:00:48;;;;;;;59.55;31.83;;;;;;;8.36;65.04;100917.63;5051327;28;20101;-77
2023/12/11 10:03:15;;;;;;;110.97;34.78;;;;;;;8.42;64.72;100918.09;5051353;28;20025;-78
2023/12/11 10:05:41;;;;;;;66.90;36.08;;;;;;;8.49;65.00;100911.34;5051460;28;20506;-78
2023/12/11 10:08:06;;;;;;;84.68;41.65;;;;;;;8.70;64.29;100912.56;5051550;28;20104;-77
2023/12/11 10:10:38;;;;;;;71.85;35.78;;;;;;;8.80;63.93;100918.16;5051449;28;20052;-77
2023/12/11 10:13:04;;;;;;;68.13;35.72;;;;;;;8.76;63.81;100897.84;5051686;28;20076;-78
2023/12/11 10:15:35;;;;;;;61.53;35.70;;;;;;;8.93;63.13;100907.44;5051183;28;20033;-77
2023/12/11 10:18:08;;;;;;;77.85;39.58;;;;;;;9.01;63.23;100899.69;5051056;28;20033;-78
2023/12/11 10:20:34;;;;;;;72.40;41.88;;;;;;;9.05;63.31;100898.50;5051208;28;20487;-76
2023/12/11 10:23:21;;;;;;;82.53;47.42;;;;;;;9.07;62.76;100899.25;5051278;28;20028;-78
2023/12/11 10:25:51;;;;;;;63.80;39.78;;;;;;;9.11;63.03;100881.97;5050885;28;20079;-77
2023/12/11 10:28:18;;;;;;;68.15;40.47;;;;;;;9.11;62.54;100871.25;5051125;28;20036;-77
2023/12/11 10:30:47;;;;;;;84.53;44.13;;;;;;;9.30;62.77;100904.69;5050963;28;20519;-77
2023/12/11 10:33:12;;;;;;;101.72;48.88;;;;;;;9.29;62.34;100889.53;5051871;28;20111;-78
2023/12/11 10:35:39;;;;;;;80.07;46.28;;;;;;;9.09;62.36;100873.16;5050976;28;20117;-78
2023/12/11 10:38:05;;;;;;;115.43;44.95;;;;;;;9.16;62.59;100874.44;5054046;28;20017;-77
2023/12/11 10:40:41;;;;;;;93.45;46.80;;;;;;;9.26;62.24;100892.44;5054695;28;20044;-77
2023/12/11 10:43:07;;;;;;;83.00;45.03;;;;;;;9.06;62.39;100868.00;5051197;28;20048;-76
2023/12/11 10:45:33;;;;;;;75.78;45.28;;;;;;;9.32;62.59;100895.69;5051851;28;20112;-78
2023/12/11 10:48:00;;;;;;;82.95;45.38;;;;;;;9.38;62.46;100890.72;5049928;28;20037;-79
2023/12/11 10:50:26;;;;;;;92.80;46.50;;;;;;;9.45;62.11;100886.59;5049147;28;20528;-77
2023/12/11 10:52:52;;;;;;;73.65;42.50;;;;;;;9.58;62.27;100887.44;5050665;28;20056;-77
2023/12/11 10:55:18;;;;;;;81.93;40.17;;;;;;;9.61;62.03;100892.59;5050665;28;20037;-77
2023/12/11 10:57:45;;;;;;;107.85;39.42;;;;;;;9.62;62.15;100891.63;5049882;28;20027;-78
2023/12/11 11:00:13;;;;;;;67.65;32.72;;;;;;;9.69;61.98;100890.19;5050680;28;20097;-78
2023/12/11 11:02:43;;;;;;;68.10;32.08;;;;;;;9.80;61.50;100892.97;5050190;28;20029;-78
2023/12/11 11:05:09;;;;;;;58.90;30.70;;;;;;;9.92;61.26;100887.63;5053819;28;20078;-78
2023/12/11 11:07:40;;;;;;;53.55;29.02;;;;;;;9.90;61.00;100870.78;5050370;28;20024;-78
2023/12/11 11:10:16;;;;;;;52.88;30.10;;;;;;;9.91;60.70;100867.97;5050306;28;20032;-76
2023/12/11 11:13:02;;;;;;;48.17;29.73;;;;;;;10.09;61.15;100881.88;5050717;28;20033;-78